createdAt,value
2023-11-18T00:05:32.761Z,0.76
2023-11-18T00:15:36.202Z,0.75
2023-11-18T00:25:41.284Z,0.73
2023-11-18T00:35:45.068Z,0.75
2023-11-18T00:45:49.302Z,0.77
2023-11-18T00:55:52.270Z,0.82
2023-11-18T01:05:56.542Z,0.76
2023-11-18T01:15:59.589Z,0.59
2023-11-18T01:26:06.110Z,0.57
2023-11-18T01:36:11.352Z,0.52
2023-11-18T01:46:15.861Z,0.50
2023-11-18T01:56:20.061Z,0.50
2023-11-18T02:06:24.562Z,0.37
2023-11-18T02:16:29.109Z,0.25
2023-11-18T02:26:33.492Z,0.23
2023-11-18T02:36:46.609Z,0.33
2023-11-18T02:46:51.180Z,0.34
2023-11-18T02:56:54.227Z,0.13
2023-11-18T03:06:58.515Z,-0.05
2023-11-18T03:17:02.249Z,0.04
2023-11-18T03:27:06.854Z,0.13
2023-11-18T03:37:10.409Z,0.13
2023-11-18T03:47:15.438Z,0.21
2023-11-18T03:57:18.403Z,0.18
2023-11-18T04:07:23.011Z,0.15
2023-11-18T04:17:29.086Z,0.17
2023-11-18T04:27:33.497Z,0.13
2023-11-18T04:37:36.784Z,0.02
2023-11-18T04:47:42.792Z,0.07
2023-11-18T04:57:45.791Z,-0.12
2023-11-18T05:07:50.127Z,-0.07
2023-11-18T05:17:53.279Z,-0.05
2023-11-18T05:27:57.576Z,-0.13
2023-11-18T05:38:01.074Z,-0.18
2023-11-18T05:48:05.577Z,-0.23
2023-11-18T05:58:10.035Z,-0.31
2023-11-18T06:08:15.256Z,-0.36
2023-11-18T06:18:18.324Z,-0.11
2023-11-18T06:28:22.597Z,-0.12
2023-11-18T06:38:25.904Z,0.06
2023-11-18T06:48:30.330Z,0.07
2023-11-18T06:58:33.269Z,0.14
2023-11-18T07:08:37.915Z,0.20
2023-11-18T07:18:40.980Z,0.42
2023-11-18T07:28:46.053Z,0.72
2023-11-18T07:38:49.134Z,1.04
2023-11-18T07:48:54.759Z,1.38
2023-11-18T07:58:57.794Z,1.76
2023-11-18T08:09:02.114Z,2.03
2023-11-18T08:19:07.058Z,2.23
2023-11-18T08:29:11.943Z,2.32
2023-11-18T08:39:17.856Z,2.74
2023-11-18T08:49:23.277Z,3.61
2023-11-18T08:59:26.776Z,3.95
2023-11-18T09:09:33.557Z,4.28
2023-11-18T09:19:36.426Z,4.44
2023-11-18T09:29:42.409Z,4.60
2023-11-18T09:39:47.045Z,5.04
2023-11-18T09:49:57.722Z,5.32
2023-11-18T10:00:12.330Z,5.79
2023-11-18T10:10:17.393Z,5.96
2023-11-18T10:20:21.874Z,6.16
2023-11-18T10:30:26.678Z,6.20
2023-11-18T10:40:29.703Z,5.63
2023-11-18T10:50:34.100Z,5.78
2023-11-18T11:00:49.735Z,5.58
2023-11-18T11:10:58.356Z,5.88
2023-11-18T11:21:12.067Z,6.00
2023-11-18T11:31:23.718Z,6.21
2023-11-18T11:41:28.650Z,6.30
2023-11-18T11:51:39.707Z,6.46
2023-11-18T12:01:48.237Z,6.49
2023-11-18T12:11:52.857Z,6.47
2023-11-18T12:22:01.894Z,6.29
2023-11-18T12:32:07.106Z,6.11
2023-11-18T12:42:16.327Z,6.27
2023-11-18T12:52:22.473Z,6.16
2023-11-18T13:02:25.787Z,5.95
2023-11-18T13:12:30.232Z,5.99
2023-11-18T13:22:42.648Z,5.86
2023-11-18T13:32:53.242Z,5.76
2023-11-18T13:43:06.459Z,5.51
2023-11-18T13:53:11.964Z,5.58
2023-11-18T14:03:16.966Z,5.45
2023-11-18T14:13:23.133Z,5.16
2023-11-18T14:23:26.642Z,4.91
2023-11-18T14:33:30.920Z,4.75
2023-11-18T14:43:34.874Z,4.59
2023-11-18T14:53:39.641Z,4.34
2023-11-18T15:03:42.761Z,4.03
2023-11-18T15:13:47.992Z,3.90
2023-11-18T15:23:51.364Z,3.72
2023-11-18T15:33:55.714Z,3.29
2023-11-18T15:43:58.677Z,2.94
2023-11-18T15:54:03.010Z,2.85
2023-11-18T16:04:07.719Z,2.86
2023-11-18T16:14:12.782Z,2.67
2023-11-18T16:24:16.121Z,2.45
2023-11-18T16:34:21.193Z,1.91
2023-11-18T16:44:24.227Z,1.97
2023-11-18T16:54:38.868Z,1.83
2023-11-18T17:04:44.046Z,1.64
2023-11-18T17:14:50.531Z,1.34
2023-11-18T17:24:55.495Z,1.61
2023-11-18T17:35:00.777Z,1.47
2023-11-18T17:45:06.515Z,1.56
2023-11-18T17:55:11.110Z,1.63
2023-11-18T18:05:14.380Z,1.67
2023-11-18T18:15:19.134Z,1.72
2023-11-18T18:25:22.053Z,1.57
2023-11-18T18:35:27.505Z,1.56
2023-11-18T18:45:31.883Z,1.70
2023-11-18T18:55:38.092Z,1.66
2023-11-18T19:05:41.153Z,1.59
2023-11-18T19:15:45.485Z,1.71
2023-11-18T19:25:48.990Z,1.78
2023-11-18T19:35:55.641Z,1.81
2023-11-18T19:45:59.240Z,1.92
2023-11-18T19:56:03.667Z,2.01
2023-11-18T20:06:08.775Z,1.69
2023-11-18T20:16:13.162Z,1.74
2023-11-18T20:26:16.152Z,1.78
2023-11-18T20:36:20.485Z,1.93
2023-11-18T20:46:23.387Z,2.12
2023-11-18T20:56:27.682Z,2.28
2023-11-18T21:06:32.086Z,2.39
2023-11-18T21:16:36.702Z,2.38
2023-11-18T21:26:40.957Z,2.32
2023-11-18T21:36:45.369Z,2.18
2023-11-18T21:46:48.262Z,1.95
2023-11-18T21:56:52.667Z,1.92
2023-11-18T22:06:55.570Z,2.02
2023-11-18T22:17:00.216Z,2.02
2023-11-18T22:27:03.747Z,1.98
2023-11-18T22:37:08.116Z,2.02
2023-11-18T22:47:11.064Z,2.03
2023-11-18T22:57:15.351Z,1.99
2023-11-18T23:07:18.400Z,2.00
2023-11-18T23:17:24.352Z,1.93
2023-11-18T23:27:28.506Z,1.88
2023-11-18T23:37:33.536Z,1.90
2023-11-18T23:47:36.821Z,1.90
2023-11-18T23:57:41.617Z,1.89
